Time;durP1;ratioP1;P1;durP2;ratioP2;P2;SDS_P1;SDS_P2;PMS_P1;PMS_P2;Temp;Humidity;BMP_temperature;BMP_pressure;BME280_temperature;BME280_humidity;BME280_pressure;Samples;Min_cycle;Max_cycle;Signal;HPM_P1;HPM_P2
2022/04/14 00:00:10;;;;;;;14.47;12.37;;;;;;;12.99;100.00;100751.66;5072777;28;20166;-75
2022/04/14 00:02:35;;;;;;;15.17;12.03;;;;;;;12.87;100.00;100745.97;5072668;28;20679;-75
2022/04/14 00:05:00;;;;;;;14.40;12.90;;;;;;;12.84;100.00;100746.63;5072952;28;20203;-74
2022/04/14 00:07:26;;;;;;;13.67;12.13;;;;;;;12.90;100.00;100739.06;5072476;28;20170;-75
2022/04/14 00:09:51;;;;;;;14.67;12.50;;;;;;;12.81;100.00;100741.78;5072493;28;20179;-75
2022/04/14 00:12:16;;;;;;;13.67;12.27;;;;;;;12.74;100.00;100746.94;5072721;28;20185;-72
2022/04/14 00:14:42;;;;;;;12.77;11.33;;;;;;;12.92;100.00;100747.78;5072202;28;20228;-77
2022/04/14 00:17:08;;;;;;;14.37;12.17;;;;;;;12.84;100.00;100751.28;5070825;28;20177;-72
2022/04/14 00:19:34;;;;;;;14.73;11.90;;;;;;;12.71;100.00;100751.09;5072404;28;20257;-72
2022/04/14 00:21:59;;;;;;;15.70;11.63;;;;;;;12.73;100.00;100757.09;5072202;28;20674;-73
2022/04/14 00:24:25;;;;;;;13.27;11.87;;;;;;;12.98;100.00;100757.47;5072276;28;20174;-74
2022/04/14 00:26:50;;;;;;;14.33;12.17;;;;;;;12.94;100.00;100762.78;5072415;28;20166;-73
2022/04/14 00:29:16;;;;;;;13.47;12.17;;;;;;;13.15;100.00;100756.69;5071839;28;20178;-72
2022/04/14 00:31:41;;;;;;;12.30;11.07;;;;;;;13.17;100.00;100748.97;5072143;28;20346;-76
2022/04/14 00:34:06;;;;;;;12.60;11.37;;;;;;;13.26;100.00;100758.03;5071462;28;20299;-76
2022/04/14 00:36:33;;;;;;;12.27;10.77;;;;;;;13.32;100.00;100763.03;5071351;28;20213;-73
2022/04/14 00:38:59;;;;;;;19.03;10.27;;;;;;;13.39;100.00;100757.88;5071268;28;20520;-72
2022/04/14 00:41:27;;;;;;;14.83;11.07;;;;;;;13.25;100.00;100754.47;5072503;28;20170;-72
2022/04/14 00:43:53;;;;;;;12.57;11.27;;;;;;;12.98;100.00;100765.69;5073406;28;20589;-73
2022/04/14 00:46:19;;;;;;;12.50;11.30;;;;;;;12.84;100.00;100757.59;5072662;28;20206;-72
2022/04/14 00:48:44;;;;;;;12.03;10.83;;;;;;;12.85;100.00;100756.47;5071594;28;20668;-72
2022/04/14 00:51:09;;;;;;;16.90;11.53;;;;;;;12.85;100.00;100755.66;5071460;28;20183;-72
2022/04/14 00:53:37;;;;;;;13.63;11.00;;;;;;;12.85;100.00;100756.47;5071589;28;20178;-72
2022/04/14 00:56:04;;;;;;;15.80;11.20;;;;;;;12.96;100.00;100763.28;5071574;28;20170;-72
2022/04/14 00:58:29;;;;;;;12.57;11.50;;;;;;;13.03;100.00;100754.59;5071304;28;20182;-72
2022/04/14 01:00:54;;;;;;;11.53;10.37;;;;;;;13.24;100.00;100750.13;5071510;28;20174;-72
2022/04/14 01:03:21;;;;;;;11.90;10.77;;;;;;;13.26;100.00;100750.59;5071454;28;20228;-72
2022/04/14 01:05:47;;;;;;;12.77;11.40;;;;;;;13.42;100.00;100752.88;5070078;28;20178;-72
2022/04/14 01:08:17;;;;;;;10.73;9.73;;;;;;;13.57;100.00;100764.16;5070322;28;20252;-72
2022/04/14 01:10:47;;;;;;;12.30;11.00;;;;;;;13.63;100.00;100762.88;5071285;28;20174;-72
2022/04/14 01:13:16;;;;;;;11.03;10.03;;;;;;;13.69;100.00;100764.31;5071860;28;20174;-72
2022/04/14 01:15:42;;;;;;;11.03;9.83;;;;;;;13.67;100.00;100768.53;5071064;28;20170;-72
2022/04/14 01:18:08;;;;;;;12.13;10.33;;;;;;;13.62;100.00;100768.69;5071073;28;20236;-75
2022/04/14 01:20:34;;;;;;;10.63;9.53;;;;;;;13.54;100.00;100764.81;5071754;28;20637;-71
2022/04/14 01:23:03;;;;;;;11.63;9.23;;;;;;;13.46;100.00;100770.31;5071051;28;20209;-72
2022/04/14 01:25:28;;;;;;;10.97;9.97;;;;;;;13.37;100.00;100764.81;5071085;28;20272;-72
2022/04/14 01:27:54;;;;;;;11.07;9.97;;;;;;;13.31;100.00;100763.38;5071212;28;20630;-72
2022/04/14 01:30:21;;;;;;;10.23;9.13;;;;;;;13.32;100.00;100767.72;5070932;28;20634;-72
2022/04/14 01:32:46;;;;;;;11.13;10.03;;;;;;;13.33;100.00;100766.59;5070875;28;20482;-74
2022/04/14 01:35:12;;;;;;;11.63;10.30;;;;;;;13.31;100.00;100761.44;5069568;28;20519;-71
2022/04/14 01:37:38;;;;;;;14.57;10.67;;;;;;;13.22;100.00;100773.53;5071122;28;20166;-73
2022/04/14 01:40:04;;;;;;;11.43;10.43;;;;;;;13.08;100.00;100777.19;5070884;28;20189;-72
2022/04/14 01:42:29;;;;;;;12.90;11.60;;;;;;;13.13;100.00;100781.69;5070805;28;20384;-72
2022/04/14 01:44:55;;;;;;;13.27;10.53;;;;;;;13.15;100.00;100776.69;5071175;28;20173;-72
2022/04/14 01:47:20;;;;;;;13.10;11.33;;;;;;;13.16;100.00;100782.97;5070772;28;20175;-72
2022/04/14 01:49:45;;;;;;;13.03;11.83;;;;;;;13.14;100.00;100788.78;5070887;28;20171;-72
2022/04/14 01:52:11;;;;;;;13.10;11.77;;;;;;;13.14;100.00;100783.31;5071148;28;20324;-73
2022/04/14 01:54:36;;;;;;;14.03;10.40;;;;;;;13.13;100.00;100789.91;5070804;28;20680;-72
2022/04/14 01:57:02;;;;;;;11.50;10.50;;;;;;;13.08;100.00;100790.88;5070544;28;20559;-72
2022/04/14 01:59:27;;;;;;;11.63;10.43;;;;;;;13.00;100.00;100785.38;5070659;28;20259;-72
2022/04/14 02:01:52;;;;;;;12.60;11.17;;;;;;;12.91;100.00;100784.56;5070739;28;20273;-72
2022/04/14 02:04:18;;;;;;;13.30;10.07;;;;;;;12.79;100.00;100790.66;5070737;28;20175;-72
2022/04/14 02:06:43;;;;;;;12.20;11.00;;;;;;;12.67;100.00;100784.97;5070680;28;20512;-72
2022/04/14 02:09:09;;;;;;;15.43;11.53;;;;;;;12.68;100.00;100776.41;5069293;28;20225;-72
2022/04/14 02:11:34;;;;;;;17.67;11.90;;;;;;;12.68;100.00;100786.56;5070599;28;20166;-72
2022/04/14 02:13:59;;;;;;;13.20;11.87;;;;;;;12.68;100.00;100779.16;5070376;28;20174;-73
2022/04/14 02:16:25;;;;;;;12.47;10.87;;;;;;;12.68;100.00;100772.88;5070442;28;20173;-72
2022/04/14 02:18:50;;;;;;;13.93;11.73;;;;;;;12.70;100.00;100773.34;5071559;28;20784;-72
2022/04/14 02:21:15;;;;;;;13.23;11.80;;;;;;;12.76;100.00;100772.91;5074559;28;20189;-72
2022/04/14 02:23:41;;;;;;;17.27;12.17;;;;;;;12.74;100.00;100768.88;5074497;28;20202;-72
2022/04/14 02:26:06;;;;;;;13.27;11.57;;;;;;;12.68;100.00;100772.88;5074456;28;20201;-75
2022/04/14 02:28:31;;;;;;;12.93;11.20;;;;;;;12.60;100.00;100766.25;5074312;28;20174;-72
2022/04/14 02:30:57;;;;;;;14.40;12.47;;;;;;;12.54;100.00;100766.69;5074651;28;20171;-72
2022/04/14 02:33:22;;;;;;;14.40;11.80;;;;;;;12.50;100.00;100775.53;5074610;28;20278;-73
2022/04/14 02:35:48;;;;;;;14.87;13.03;;;;;;;12.50;100.00;100780.22;5074528;28;20283;-75
2022/04/14 02:38:13;;;;;;;18.67;13.97;;;;;;;12.51;100.00;100776.34;5074101;28;20210;-72
2022/04/14 02:40:39;;;;;;;16.17;14.13;;;;;;;12.55;100.00;100771.03;5074059;28;20186;-73
2022/04/14 02:43:05;;;;;;;17.07;15.23;;;;;;;12.57;100.00;100772.34;5074080;28;20202;-72
2022/04/14 02:45:30;;;;;;;20.50;15.10;;;;;;;12.62;100.00;100764.00;5073981;28;20174;-74
2022/04/14 02:47:55;;;;;;;16.60;14.90;;;;;;;12.66;100.00;100772.38;5073930;28;20507;-72
2022/04/14 02:50:21;;;;;;;17.27;15.17;;;;;;;12.68;100.00;100768.19;5073973;28;20202;-73
2022/04/14 02:52:48;;;;;;;19.00;16.13;;;;;;;12.72;100.00;100762.88;5073799;28;20657;-72
2022/04/14 02:55:13;;;;;;;17.40;15.10;;;;;;;12.73;100.00;100764.47;5073210;28;20175;-72
2022/04/14 02:57:39;;;;;;;20.20;15.50;;;;;;;12.73;100.00;100764.47;5073037;28;20185;-72
2022/04/14 03:00:11;;;;;;;15.50;13.80;;;;;;;12.70;100.00;100765.94;5073285;28;20715;-72
2022/04/14 03:02:39;;;;;;;17.63;15.00;;;;;;;12.70;100.00;100762.38;5073116;28;20202;-71
2022/04/14 03:05:06;;;;;;;17.80;14.37;;;;;;;12.69;100.00;100767.06;5073022;28;20174;-72
2022/04/14 03:07:32;;;;;;;15.83;13.93;;;;;;;12.71;100.00;100758.53;5072690;28;20186;-72
2022/04/14 03:09:58;;;;;;;16.30;14.77;;;;;;;12.70;100.00;100751.41;5072777;28;20178;-72
2022/04/14 03:12:23;;;;;;;15.60;13.80;;;;;;;12.74;100.00;100757.91;5072906;28;20178;-72
2022/04/14 03:14:49;;;;;;;15.67;13.33;;;;;;;12.76;100.00;100755.66;5072771;28;20679;-72
2022/04/14 03:17:15;;;;;;;16.20;14.30;;;;;;;12.73;100.00;100757.09;5072820;28;20179;-73
2022/04/14 03:19:40;;;;;;;15.90;13.87;;;;;;;12.74;100.00;100755.16;5073053;28;20223;-71
2022/04/14 03:22:05;;;;;;;15.10;13.43;;;;;;;12.59;100.00;100748.19;5072776;28;20194;-72
2022/04/14 03:24:31;;;;;;;13.97;12.37;;;;;;;12.66;100.00;100751.25;5073006;28;20194;-72
2022/04/14 03:26:56;;;;;;;19.40;11.53;;;;;;;12.65;100.00;100755.13;5071485;28;20209;-72
2022/04/14 03:29:22;;;;;;;13.87;10.80;;;;;;;12.64;100.00;100755.44;5072716;28;20200;-71
2022/04/14 03:31:47;;;;;;;12.87;11.27;;;;;;;12.61;100.00;100754.16;5068596;28;20179;-73
2022/04/14 03:34:12;;;;;;;11.97;10.90;;;;;;;12.58;100.00;100757.50;5067437;28;20669;-72
2022/04/14 03:36:38;;;;;;;11.47;10.13;;;;;;;12.58;100.00;100745.72;5073062;28;20714;-72
2022/04/14 03:39:04;;;;;;;9.93;9.03;;;;;;;12.39;100.00;100738.56;5072856;28;20239;-74
2022/04/14 03:41:29;;;;;;;9.70;8.80;;;;;;;12.34;100.00;100732.44;5073109;28;20238;-72
2022/04/14 03:43:55;;;;;;;9.17;8.20;;;;;;;12.50;100.00;100733.63;5072955;28;20248;-71
2022/04/14 03:46:20;;;;;;;8.40;7.60;;;;;;;12.42;100.00;100737.13;5072805;28;20181;-72
2022/04/14 03:48:46;;;;;;;7.80;7.10;;;;;;;12.48;100.00;100750.41;5072743;28;20171;-71
2022/04/14 03:51:14;;;;;;;6.30;5.80;;;;;;;12.45;100.00;100753.78;5072913;28;20167;-75
2022/04/14 03:53:43;;;;;;;6.27;5.67;;;;;;;12.26;100.00;100739.47;5073033;28;20198;-71
2022/04/14 03:56:10;;;;;;;6.27;5.70;;;;;;;12.30;100.00;100753.38;5072719;28;20175;-72
2022/04/14 03:58:35;;;;;;;6.87;6.27;;;;;;;12.27;100.00;100752.06;5072503;28;20185;-71
2022/04/14 04:01:01;;;;;;;6.10;5.60;;;;;;;12.19;100.00;100737.22;5072742;28;20171;-72
2022/04/14 04:03:26;;;;;;;5.03;4.63;;;;;;;12.23;100.00;100747.53;5072617;28;20669;-71
2022/04/14 04:05:52;;;;;;;5.40;4.90;;;;;;;12.23;100.00;100747.53;5072675;28;20280;-72
2022/04/14 04:08:18;;;;;;;8.27;5.23;;;;;;;12.21;100.00;100745.09;5072243;28;20187;-72
2022/04/14 04:10:44;;;;;;;4.90;4.50;;;;;;;12.17;100.00;100738.66;5072832;28;20170;-72
2022/04/14 04:13:09;;;;;;;5.57;4.10;;;;;;;12.25;100.00;100735.13;5071484;28;20538;-71
2022/04/14 04:15:35;;;;;;;4.80;4.40;;;;;;;12.29;100.00;100747.06;5072887;28;20213;-73
2022/04/14 04:18:00;;;;;;;4.80;4.40;;;;;;;12.29;100.00;100744.31;5072706;28;20541;-72
2022/04/14 04:20:25;;;;;;;4.60;4.13;;;;;;;12.28;100.00;100739.97;5072885;28;20185;-72
2022/04/14 04:22:51;;;;;;;4.33;3.93;;;;;;;12.35;100.00;100745.81;5072650;28;20214;-72
2022/04/14 04:25:16;;;;;;;4.00;3.70;;;;;;;12.34;100.00;100744.22;5072639;28;20579;-72
2022/04/14 04:27:42;;;;;;;4.53;4.13;;;;;;;12.23;100.00;100751.06;5072369;28;20171;-75
2022/04/14 04:30:08;;;;;;;3.60;3.30;;;;;;;12.23;100.00;100742.06;5072462;28;20198;-72
2022/04/14 04:32:34;;;;;;;4.70;4.30;;;;;;;12.19;100.00;100753.66;5072120;28;20179;-72
2022/04/14 04:35:04;;;;;;;4.30;3.90;;;;;;;12.21;100.00;100756.06;5072296;28;20611;-72
2022/04/14 04:37:30;;;;;;;4.17;3.40;;;;;;;12.25;100.00;100753.50;5072202;28;20261;-74
2022/04/14 04:39:56;;;;;;;4.07;3.77;;;;;;;12.21;100.00;100762.34;5072426;28;20182;-73
2022/04/14 04:42:22;;;;;;;4.30;4.00;;;;;;;12.27;100.00;100759.47;5072005;28;20206;-72
2022/04/14 04:44:47;;;;;;;3.90;3.60;;;;;;;12.22;100.00;100754.94;5072251;28;20170;-71
2022/04/14 04:47:12;;;;;;;3.90;3.50;;;;;;;12.21;100.00;100765.09;5071788;28;20217;-73
2022/04/14 04:49:38;;;;;;;5.00;4.50;;;;;;;12.23;100.00;100770.25;5072386;28;20198;-71
2022/04/14 04:52:04;;;;;;;4.17;3.77;;;;;;;11.95;100.00;100753.19;5072252;28;20684;-71
2022/04/14 04:54:29;;;;;;;4.87;4.37;;;;;;;12.03;100.00;100749.69;5071805;28;20226;-72
2022/04/14 04:56:54;;;;;;;4.47;4.03;;;;;;;11.80;100.00;100754.38;5071570;28;20261;-72
2022/04/14 04:59:20;;;;;;;4.47;4.07;;;;;;;12.00;100.00;100754.97;5071633;28;20170;-71
2022/04/14 05:01:45;;;;;;;4.87;4.43;;;;;;;12.06;100.00;100757.28;5071738;28;20180;-71
2022/04/14 05:04:11;;;;;;;4.83;4.43;;;;;;;12.08;100.00;100765.19;5070397;28;20278;-71
2022/04/14 05:06:37;;;;;;;5.37;4.97;;;;;;;12.05;100.00;100768.53;5071704;28;20273;-71
2022/04/14 05:09:02;;;;;;;5.43;5.03;;;;;;;12.06;100.00;100768.22;5071489;28;20671;-71
2022/04/14 05:11:28;;;;;;;6.43;4.60;;;;;;;12.04;100.00;100772.41;5071441;28;20170;-71
2022/04/14 05:13:53;;;;;;;5.97;4.87;;;;;;;12.03;100.00;100782.56;5071036;28;20258;-71
2022/04/14 05:16:19;;;;;;;6.17;5.57;;;;;;;11.97;100.00;100786.53;5071307;28;20170;-71
2022/04/14 05:18:44;;;;;;;5.63;5.13;;;;;;;11.86;100.00;100783.25;5068695;28;20286;-71
2022/04/14 05:21:09;;;;;;;5.13;4.73;;;;;;;11.78;100.00;100775.75;5097655;28;20175;-71
2022/04/14 05:23:34;;;;;;;5.43;4.93;;;;;;;11.79;100.00;100782.88;5068283;28;20254;-71
2022/04/14 05:26:00;;;;;;;5.93;5.43;;;;;;;11.77;100.00;100779.59;5071201;28;20181;-72
2022/04/14 05:28:25;;;;;;;7.37;5.10;;;;;;;11.76;100.00;100777.19;5071215;28;20176;-72
2022/04/14 05:30:51;;;;;;;6.00;5.50;;;;;;;11.71;100.00;100780.03;5071576;28;20258;-71
2022/04/14 05:33:16;;;;;;;6.47;5.90;;;;;;;11.66;100.00;100782.88;5071623;28;20179;-71
2022/04/14 05:35:44;;;;;;;5.53;5.00;;;;;;;11.63;100.00;100781.59;5071069;28;20179;-71
2022/04/14 05:38:10;;;;;;;5.47;4.97;;;;;;;11.62;100.00;100777.22;5070813;28;20709;-72
2022/04/14 05:40:41;;;;;;;5.97;5.33;;;;;;;11.67;100.00;100784.50;5071477;28;20273;-71
2022/04/14 05:43:08;;;;;;;5.93;5.37;;;;;;;11.64;100.00;100785.94;5070826;28;20190;-72
2022/04/14 05:45:34;;;;;;;5.47;4.87;;;;;;;11.58;100.00;100784.47;5070734;28;20188;-71
2022/04/14 05:47:59;;;;;;;5.47;4.97;;;;;;;11.54;100.00;100781.50;5070659;28;20179;-72
2022/04/14 05:50:24;;;;;;;4.90;4.50;;;;;;;11.49;100.00;100778.91;5070595;28;20528;-72
2022/04/14 05:52:50;;;;;;;4.80;4.30;;;;;;;11.48;100.00;100782.75;5070694;28;20205;-71
2022/04/14 05:55:15;;;;;;;6.00;5.27;;;;;;;11.49;100.00;100778.91;5070354;28;20534;-72
2022/04/14 05:57:40;;;;;;;5.50;4.73;;;;;;;11.50;100.00;100779.72;5070669;28;20176;-71
2022/04/14 06:00:06;;;;;;;6.17;5.63;;;;;;;11.51;100.00;100781.31;5070737;28;20166;-72
2022/04/14 06:02:32;;;;;;;7.03;6.17;;;;;;;11.50;100.00;100780.50;5070866;28;20264;-71
2022/04/14 06:04:57;;;;;;;6.93;6.23;;;;;;;11.51;100.00;100786.78;5070577;28;20181;-71
2022/04/14 06:07:22;;;;;;;6.77;6.17;;;;;;;11.54;100.00;100777.97;5070472;28;20193;-71
2022/04/14 06:09:48;;;;;;;9.00;7.03;;;;;;;11.61;100.00;100789.31;5070641;28;20218;-71
2022/04/14 06:12:13;;;;;;;7.33;6.67;;;;;;;11.65;100.00;100794.97;5070447;28;20180;-72
2022/04/14 06:14:38;;;;;;;8.40;7.67;;;;;;;11.68;100.00;100797.06;5070427;28;20170;-72
2022/04/14 06:17:04;;;;;;;10.53;9.53;;;;;;;11.65;100.00;100801.25;5070665;28;20268;-71
2022/04/14 06:19:29;;;;;;;10.97;9.87;;;;;;;11.65;100.00;100806.72;5070599;28;20630;-72
2022/04/14 06:21:55;;;;;;;10.87;9.80;;;;;;;11.66;100.00;100802.06;5070100;28;20189;-71
2022/04/14 06:24:20;;;;;;;10.93;9.90;;;;;;;11.66;100.00;100800.13;5070474;28;20210;-71
2022/04/14 06:26:45;;;;;;;12.93;11.57;;;;;;;11.66;100.00;100807.53;5070433;28;20175;-71
2022/04/14 06:29:10;;;;;;;10.97;9.90;;;;;;;11.65;100.00;100806.72;5070597;28;20265;-72
2022/04/14 06:31:37;;;;;;;12.63;10.47;;;;;;;11.62;100.00;100808.16;5070449;28;20669;-71
2022/04/14 06:34:05;;;;;;;13.17;11.87;;;;;;;11.60;100.00;100818.59;5070303;28;20225;-71
2022/04/14 06:36:30;;;;;;;11.90;10.70;;;;;;;11.59;100.00;100810.69;5070248;28;20660;-71
2022/04/14 06:38:56;;;;;;;13.40;11.90;;;;;;;11.60;100.00;100809.59;5068645;28;20171;-71
2022/04/14 06:41:21;;;;;;;11.90;10.80;;;;;;;11.57;100.00;100810.16;5070604;28;20170;-71
2022/04/14 06:43:49;;;;;;;12.43;11.23;;;;;;;11.58;100.00;100803.63;5070222;28;20206;-71
2022/04/14 06:46:18;;;;;;;13.93;11.20;;;;;;;11.56;100.00;100801.16;5070252;28;20175;-71
2022/04/14 06:48:44;;;;;;;10.70;9.50;;;;;;;11.57;100.00;100812.91;5070021;28;20182;-72
2022/04/14 06:51:10;;;;;;;11.57;10.37;;;;;;;11.59;100.00;100810.69;5070501;28;20174;-72
2022/04/14 06:53:37;;;;;;;11.47;10.37;;;;;;;11.60;100.00;100820.53;5070535;28;20282;-71
2022/04/14 06:56:04;;;;;;;14.87;11.63;;;;;;;11.59;100.00;100816.19;5070159;28;20178;-71
2022/04/14 06:58:29;;;;;;;13.77;11.37;;;;;;;11.59;100.00;100816.97;5069927;28;20182;-71
2022/04/14 07:00:54;;;;;;;11.67;10.57;;;;;;;11.63;100.00;100822.63;5070059;28;20174;-72
2022/04/14 07:03:26;;;;;;;12.90;11.50;;;;;;;11.65;100.00;100820.41;5069701;28;20203;-72
2022/04/14 07:05:54;;;;;;;13.57;12.17;;;;;;;11.65;100.00;100825.06;5071100;28;20186;-71
2022/04/14 07:08:20;;;;;;;14.70;11.87;;;;;;;11.64;100.00;100827.00;5073482;28;20622;-71
2022/04/14 07:10:45;;;;;;;14.27;11.47;;;;;;;11.70;100.00;100822.19;5072271;28;20184;-71
2022/04/14 07:13:11;;;;;;;13.67;12.27;;;;;;;11.68;100.00;100822.50;5073510;28;20203;-71
2022/04/14 07:15:36;;;;;;;16.67;12.97;;;;;;;11.71;100.00;100824.63;5073590;28;20174;-72
2022/04/14 07:18:01;;;;;;;21.73;14.67;;;;;;;11.71;100.00;100827.34;5073146;28;20634;-71
2022/04/14 07:20:29;;;;;;;18.73;14.87;;;;;;;11.72;100.00;100822.72;5073527;28;20206;-71
2022/04/14 07:22:55;;;;;;;15.43;13.73;;;;;;;11.74;100.00;100818.56;5071972;28;20229;-72
2022/04/14 07:25:21;;;;;;;19.43;14.30;;;;;;;11.75;100.00;100830.31;5073422;28;20660;-71
2022/04/14 07:27:46;;;;;;;16.60;13.70;;;;;;;11.80;100.00;100822.81;5071893;28;20178;-72
2022/04/14 07:30:12;;;;;;;18.57;13.70;;;;;;;11.80;100.00;100830.22;5073108;28;20561;-72
2022/04/14 07:32:45;;;;;;;19.03;14.87;;;;;;;11.82;100.00;100822.50;5073185;28;20257;-72
2022/04/14 07:35:12;;;;;;;17.10;15.30;;;;;;;11.86;100.00;100820.75;5073290;28;20159;-72
2022/04/14 07:37:37;;;;;;;15.37;11.50;;;;;;;11.81;100.00;100818.94;5073012;28;20183;-73
2022/04/14 07:40:05;;;;;;;20.90;14.20;;;;;;;11.88;100.00;100826.75;5073343;28;20195;-71
2022/04/14 07:42:38;;;;;;;18.53;13.07;;;;;;;11.95;100.00;100818.09;5074899;28;20206;-72
2022/04/14 07:45:06;;;;;;;15.17;13.67;;;;;;;11.90;100.00;100814.34;5073112;28;20184;-71
2022/04/14 07:47:31;;;;;;;20.87;13.87;;;;;;;12.00;100.00;100818.75;5073055;28;20182;-71
2022/04/14 07:49:57;;;;;;;16.10;14.50;;;;;;;12.06;100.00;100822.19;5073165;28;20257;-72
2022/04/14 07:52:23;;;;;;;16.17;14.37;;;;;;;12.11;100.00;100822.06;5073716;28;20208;-72
2022/04/14 07:54:48;;;;;;;18.50;13.23;;;;;;;12.08;100.00;100828.97;5072796;28;20175;-72
2022/04/14 07:57:13;;;;;;;14.97;12.97;;;;;;;12.03;100.00;100837.31;5072830;28;20181;-72
2022/04/14 07:59:39;;;;;;;13.60;11.80;;;;;;;12.10;100.00;100837.69;5072670;28;20178;-72
2022/04/14 08:02:04;;;;;;;12.53;11.20;;;;;;;12.11;100.00;100842.03;5072678;28;20182;-72
2022/04/14 08:04:32;;;;;;;11.93;10.73;;;;;;;12.13;100.00;100842.53;5072636;28;20685;-71
2022/04/14 08:06:58;;;;;;;13.20;11.90;;;;;;;12.10;100.00;100839.63;5072824;28;20170;-72
2022/04/14 08:09:23;;;;;;;13.27;11.97;;;;;;;12.09;100.00;100835.25;5072468;28;20530;-72
2022/04/14 08:11:49;;;;;;;12.93;11.70;;;;;;;12.13;100.00;100830.78;5072442;28;20171;-71
2022/04/14 08:14:14;;;;;;;21.90;16.90;;;;;;;12.12;100.00;100829.16;5072508;28;20183;-71
2022/04/14 08:16:40;;;;;;;26.40;18.87;;;;;;;12.13;100.00;100822.56;5072221;28;20243;-71
2022/04/14 08:19:05;;;;;;;31.57;22.87;;;;;;;12.16;100.00;100830.97;5072261;28;20582;-72
2022/04/14 08:21:31;;;;;;;47.90;31.13;;;;;;;12.21;100.00;100830.03;5072394;28;20178;-72
2022/04/14 08:23:57;;;;;;;19.43;17.07;;;;;;;12.35;100.00;100836.25;5072376;28;20202;-72
2022/04/14 08:26:23;;;;;;;22.70;17.90;;;;;;;12.37;100.00;100834.00;5072249;28;20205;-71
2022/04/14 08:28:48;;;;;;;16.10;14.70;;;;;;;12.33;100.00;100832.19;5071998;28;20181;-71
2022/04/14 08:31:15;;;;;;;12.63;11.00;;;;;;;12.35;100.00;100838.16;5071865;28;20182;-72
2022/04/14 08:33:42;;;;;;;13.20;11.47;;;;;;;12.39;100.00;100833.66;5072231;28;20191;-72
2022/04/14 08:36:12;;;;;;;14.17;12.23;;;;;;;12.40;100.00;100838.84;5062452;28;20634;-73
2022/04/14 08:38:43;;;;;;;14.97;13.47;;;;;;;12.44;100.00;100842.59;5052182;28;20199;-76
2022/04/14 08:41:11;;;;;;;11.30;10.20;;;;;;;12.45;100.00;100846.94;5065458;28;20179;-72
2022/04/14 08:43:36;;;;;;;9.50;8.53;;;;;;;12.48;100.00;100854.53;5068828;28;20209;-71
2022/04/14 08:46:03;;;;;;;10.93;9.47;;;;;;;12.49;100.00;100850.66;5061620;28;20187;-71
2022/04/14 08:48:29;;;;;;;13.53;12.07;;;;;;;12.57;100.00;100853.75;5071560;28;20312;-72
2022/04/14 08:50:56;;;;;;;10.43;9.37;;;;;;;12.61;100.00;100843.81;5071958;28;20666;-72
2022/04/14 08:53:26;;;;;;;10.27;9.23;;;;;;;12.69;100.00;100846.56;5064396;28;20515;-71
2022/04/14 08:55:52;;;;;;;11.83;8.93;;;;;;;12.71;100.00;100841.56;5051958;28;20550;-71
2022/04/14 08:58:19;;;;;;;18.87;11.80;;;;;;;12.82;100.00;100836.63;5050921;28;20182;-71
2022/04/14 09:00:45;;;;;;;14.10;9.40;;;;;;;12.94;100.00;100836.84;5051462;28;20226;-71
2022/04/14 09:03:15;;;;;;;10.70;9.60;;;;;;;13.06;100.00;100850.75;5051063;28;20696;-71
2022/04/14 09:05:40;;;;;;;11.30;8.60;;;;;;;13.08;100.00;100843.00;5063027;28;20266;-72
2022/04/14 09:08:07;;;;;;;13.00;9.00;;;;;;;13.13;100.00;100843.97;5068688;28;20274;-70
2022/04/14 09:10:32;;;;;;;11.03;9.07;;;;;;;13.20;100.00;100844.38;5072152;28;20182;-70
2022/04/14 09:12:58;;;;;;;18.10;10.83;;;;;;;13.25;100.00;100850.50;5071683;28;20681;-72
2022/04/14 09:15:24;;;;;;;9.87;7.67;;;;;;;13.31;100.00;100849.25;5072193;28;20249;-71
2022/04/14 09:17:49;;;;;;;9.57;8.57;;;;;;;13.34;100.00;100854.09;5071724;28;20273;-72
2022/04/14 09:20:27;;;;;;;12.33;8.43;;;;;;;13.49;100.00;100854.75;5071747;28;20175;-71
2022/04/14 09:23:10;;;;;;;6.83;6.13;;;;;;;13.40;100.00;100852.00;5071090;28;20229;-71
2022/04/14 09:25:36;;;;;;;9.63;8.10;;;;;;;13.52;100.00;100856.88;5071169;28;20576;-71
2022/04/14 09:28:12;;;;;;;9.00;7.10;;;;;;;13.62;100.00;100868.34;5070306;28;20213;-72
2022/04/14 09:30:38;;;;;;;7.13;6.47;;;;;;;13.62;100.00;100860.13;5070532;28;20532;-72
2022/04/14 09:33:03;;;;;;;10.60;7.97;;;;;;;13.53;100.00;100864.78;5070327;28;20170;-71
2022/04/14 09:35:31;;;;;;;8.07;7.23;;;;;;;13.62;100.00;100857.38;5070862;28;20178;-71
2022/04/14 09:38:07;;;;;;;7.97;6.97;;;;;;;13.62;100.00;100856.56;5070206;28;20167;-71
2022/04/14 09:40:37;;;;;;;9.47;8.43;;;;;;;13.59;100.00;100854.44;5070908;28;20543;-71
2022/04/14 09:43:04;;;;;;;7.87;7.03;;;;;;;13.60;100.00;100850.59;5070433;28;20209;-71
2022/04/14 09:45:30;;;;;;;7.07;5.60;;;;;;;13.57;100.00;100852.00;5070321;28;20171;-72
2022/04/14 09:48:05;;;;;;;9.37;7.97;;;;;;;13.65;100.00;100853.97;5070238;28;20196;-71
2022/04/14 09:50:39;;;;;;;9.30;8.40;;;;;;;13.63;100.00;100853.50;5070441;28;20182;-71
2022/04/14 09:53:07;;;;;;;10.23;9.27;;;;;;;13.63;100.00;100856.22;5070288;28;20180;-71
2022/04/14 09:55:38;;;;;;;8.73;7.83;;;;;;;13.79;100.00;100839.28;5070325;28;20684;-72
2022/04/14 09:58:13;;;;;;;11.40;8.17;;;;;;;13.88;100.00;100843.63;5070060;28;20590;-71
2022/04/14 10:00:40;;;;;;;6.70;5.27;;;;;;;13.86;100.00;100840.41;5070388;28;20198;-72
2022/04/14 10:03:19;;;;;;;8.77;6.30;;;;;;;13.89;100.00;100841.72;5070216;28;20209;-71
2022/04/14 10:05:46;;;;;;;11.50;8.23;;;;;;;13.97;100.00;100847.19;5070233;28;20224;-73
2022/04/14 10:08:13;;;;;;;9.30;8.33;;;;;;;14.11;100.00;100837.97;5069627;28;20406;-72
2022/04/14 10:10:40;;;;;;;8.93;7.90;;;;;;;14.35;100.00;100852.00;5070083;28;20182;-72
2022/04/14 10:13:08;;;;;;;7.37;6.67;;;;;;;14.38;100.00;100848.59;5070344;28;20220;-72
2022/04/14 10:15:36;;;;;;;8.87;7.17;;;;;;;14.33;100.00;100842.47;5069929;28;20661;-71
2022/04/14 10:18:07;;;;;;;9.33;8.03;;;;;;;14.43;100.00;100839.34;5070264;28;20167;-72
2022/04/14 10:20:34;;;;;;;9.20;7.93;;;;;;;14.50;100.00;100837.75;5069993;28;20185;-72
2022/04/14 10:23:00;;;;;;;7.00;6.40;;;;;;;14.56;100.00;100841.13;5069920;28;20202;-71
2022/04/14 10:25:26;;;;;;;8.63;7.83;;;;;;;14.57;100.00;100835.28;5070028;28;20256;-71
2022/04/14 10:27:54;;;;;;;7.87;7.17;;;;;;;14.51;100.00;100831.13;5069806;28;20166;-71
2022/04/14 10:30:20;;;;;;;7.60;6.93;;;;;;;14.46;99.78;100838.72;5069908;28;20244;-71
2022/04/14 10:32:46;;;;;;;8.30;7.63;;;;;;;14.54;100.00;100844.19;5066386;28;20477;-71
2022/04/14 10:35:12;;;;;;;7.33;6.30;;;;;;;14.60;100.00;100839.31;5064469;28;20199;-71
2022/04/14 10:37:52;;;;;;;9.43;7.93;;;;;;;14.58;99.47;100830.59;5062835;28;20187;-72
2022/04/14 10:40:18;;;;;;;9.27;8.27;;;;;;;14.53;98.71;100834.34;5070162;28;20182;-71
2022/04/14 10:42:50;;;;;;;7.70;6.90;;;;;;;14.64;99.95;100845.81;5072799;28;20270;-71
2022/04/14 10:45:17;;;;;;;7.67;6.90;;;;;;;14.69;99.72;100839.31;5072844;28;20179;-72
2022/04/14 10:47:43;;;;;;;7.77;7.07;;;;;;;14.73;97.62;100834.75;5072636;28;20521;-71
2022/04/14 10:50:24;;;;;;;6.97;5.93;;;;;;;14.94;96.45;100832.91;5073406;28;20177;-71
2022/04/14 10:53:17;;;;;;;8.33;7.53;;;;;;;15.12;95.55;100836.34;5073790;28;20200;-72
2022/04/14 10:55:45;;;;;;;6.37;5.77;;;;;;;15.14;94.01;100828.56;5074213;28;20247;-73
2022/04/14 10:58:28;;;;;;;5.47;2.93;;;;;;;15.04;91.23;100828.94;5073510;28;20271;-71
2022/04/14 11:00:55;;;;;;;6.20;5.70;;;;;;;15.04;88.86;100828.94;5073552;28;20660;-71
2022/04/14 11:03:43;;;;;;;7.33;6.63;;;;;;;15.04;88.73;100832.50;5073498;28;20213;-72
2022/04/14 11:06:09;;;;;;;3.13;2.80;;;;;;;15.04;88.92;100838.00;5073706;28;20209;-72